createdAt,value
2018-03-06T00:00:27.488Z,20.10
2018-03-06T00:01:27.389Z,19.70
2018-03-06T00:03:20.112Z,19.30
2018-03-06T00:04:20.014Z,18.60
2018-03-06T00:06:12.772Z,19.50
2018-03-06T00:07:12.667Z,18.90
2018-03-06T00:09:05.513Z,19.20
2018-03-06T00:10:05.407Z,18.90
2018-03-06T00:11:58.180Z,19.40
2018-03-06T00:12:58.063Z,18.70
2018-03-06T00:14:50.818Z,18.40
2018-03-06T00:15:50.718Z,19.30
2018-03-06T00:17:43.468Z,18.70
2018-03-06T00:18:43.363Z,18.60
2018-03-06T00:20:36.621Z,18.40
2018-03-06T00:21:36.517Z,18.40
2018-03-06T00:23:29.287Z,17.60
2018-03-06T00:24:29.159Z,18.10
2018-03-06T00:26:22.058Z,19.30
2018-03-06T00:27:21.909Z,17.70
2018-03-06T00:29:14.672Z,16.90
2018-03-06T00:30:14.561Z,17.50
2018-03-06T00:32:07.314Z,18.70
2018-03-06T00:33:07.208Z,19.20
2018-03-06T00:35:00.001Z,18.60
2018-03-06T00:35:59.894Z,19.30
2018-03-06T00:37:52.698Z,20.30
2018-03-06T00:38:52.616Z,21.40
2018-03-06T00:40:45.463Z,19.50
2018-03-06T00:41:45.345Z,19.20
2018-03-06T00:43:38.207Z,20.50
2018-03-06T00:44:38.090Z,20.40
2018-03-06T00:46:30.863Z,22.70
2018-03-06T00:47:30.853Z,23.10
2018-03-06T00:49:23.499Z,25.50
2018-03-06T00:50:23.430Z,24.40
2018-03-06T00:52:16.158Z,25.40
2018-03-06T00:53:16.048Z,25.60
2018-03-06T00:55:08.786Z,25.50
2018-03-06T00:56:08.698Z,25.10
2018-03-06T00:58:01.458Z,24.40
2018-03-06T00:59:01.334Z,24.30
2018-03-06T01:00:54.170Z,24.60
2018-03-06T01:01:53.994Z,24.30
2018-03-06T01:03:46.750Z,24.00
2018-03-06T01:04:46.627Z,24.30
2018-03-06T01:06:39.393Z,23.90
2018-03-06T01:07:39.273Z,24.90
2018-03-06T01:09:32.039Z,24.90
2018-03-06T01:10:31.932Z,24.70
2018-03-06T01:12:24.683Z,26.20
2018-03-06T01:13:24.576Z,26.10
2018-03-06T01:15:17.350Z,25.10
2018-03-06T01:16:17.256Z,25.30
2018-03-06T01:18:09.970Z,25.50
2018-03-06T01:19:09.866Z,25.30
2018-03-06T01:21:02.636Z,22.80
2018-03-06T01:22:02.506Z,24.60
2018-03-06T01:23:55.268Z,23.10
2018-03-06T01:24:55.176Z,23.80
2018-03-06T01:26:47.939Z,22.00
2018-03-06T01:27:47.813Z,22.10
2018-03-06T01:29:40.567Z,21.90
2018-03-06T01:30:40.456Z,22.60
2018-03-06T01:32:33.219Z,20.80
2018-03-06T01:33:33.103Z,20.80
2018-03-06T01:35:25.860Z,21.50
2018-03-06T01:36:25.757Z,21.80
2018-03-06T01:38:18.530Z,22.80
2018-03-06T01:39:18.533Z,23.40
2018-03-06T01:41:11.207Z,23.00
2018-03-06T01:42:11.100Z,22.80
2018-03-06T01:44:03.804Z,20.70
2018-03-06T01:45:03.715Z,21.80
2018-03-06T01:46:56.460Z,22.00
2018-03-06T01:47:56.346Z,20.40
2018-03-06T01:49:49.095Z,19.80
2018-03-06T01:50:48.981Z,20.90
2018-03-06T01:52:41.740Z,21.10
2018-03-06T01:53:41.648Z,20.70
2018-03-06T01:55:34.389Z,19.30
2018-03-06T01:56:34.278Z,18.50
2018-03-06T01:58:27.037Z,19.20
2018-03-06T01:59:26.929Z,19.30
2018-03-06T02:01:19.714Z,19.70
2018-03-06T02:02:19.570Z,20.30
2018-03-06T02:04:12.317Z,20.30
2018-03-06T02:05:12.251Z,20.70
2018-03-06T02:07:04.988Z,20.90
2018-03-06T02:08:04.860Z,20.90
2018-03-06T02:09:57.611Z,20.20
2018-03-06T02:10:57.513Z,20.70
2018-03-06T02:12:50.277Z,19.30
2018-03-06T02:13:50.157Z,19.50
2018-03-06T02:15:42.921Z,20.00
2018-03-06T02:16:42.823Z,19.90
2018-03-06T02:18:35.585Z,19.20
2018-03-06T02:19:35.457Z,20.10
2018-03-06T02:21:28.200Z,20.30
2018-03-06T02:22:28.114Z,20.40
2018-03-06T02:24:20.866Z,20.90
2018-03-06T02:25:20.747Z,20.00
2018-03-06T02:27:13.510Z,21.10
2018-03-06T02:28:13.402Z,21.20
2018-03-06T02:30:06.189Z,20.70
2018-03-06T02:31:06.040Z,21.10
2018-03-06T02:32:58.819Z,20.90
2018-03-06T02:33:58.690Z,20.10
2018-03-06T02:35:51.464Z,20.10
2018-03-06T02:36:51.341Z,19.10
2018-03-06T02:38:44.080Z,20.40
2018-03-06T02:39:43.982Z,20.20
2018-03-06T02:41:36.770Z,20.80
2018-03-06T02:42:36.655Z,19.50
2018-03-06T02:44:29.375Z,20.00
2018-03-06T02:45:29.290Z,21.10
2018-03-06T02:47:22.605Z,20.50
2018-03-06T02:48:22.440Z,20.40
2018-03-06T02:50:15.201Z,21.90
2018-03-06T02:51:15.085Z,22.50
2018-03-06T02:53:07.846Z,20.10
2018-03-06T02:54:07.747Z,23.00
2018-03-06T02:56:00.479Z,20.90
2018-03-06T02:57:00.394Z,21.30
2018-03-06T02:58:53.137Z,20.80
2018-03-06T02:59:53.030Z,21.90
2018-03-06T03:01:45.807Z,21.50
2018-03-06T03:02:45.682Z,24.20
2018-03-06T03:04:38.533Z,22.00
2018-03-06T03:05:38.421Z,22.40
2018-03-06T03:07:31.180Z,23.60
2018-03-06T03:08:31.075Z,22.40
2018-03-06T03:10:24.362Z,21.50
2018-03-06T03:11:24.230Z,20.90
2018-03-06T03:13:17.319Z,21.80
2018-03-06T03:14:17.199Z,21.80
2018-03-06T03:16:10.030Z,22.10
2018-03-06T03:17:09.942Z,23.20
2018-03-06T03:19:02.788Z,24.10
2018-03-06T03:20:02.683Z,22.20
2018-03-06T03:21:55.541Z,22.50
2018-03-06T03:22:55.443Z,21.90
2018-03-06T03:24:48.287Z,23.00
2018-03-06T03:25:48.178Z,23.00
2018-03-06T03:27:41.129Z,23.00
2018-03-06T03:28:40.934Z,23.30
2018-03-06T03:30:33.692Z,24.10
2018-03-06T03:31:33.598Z,21.40
2018-03-06T03:33:26.426Z,22.80
2018-03-06T03:34:26.321Z,21.30
2018-03-06T03:36:19.628Z,22.50
2018-03-06T03:37:19.489Z,22.80
2018-03-06T03:39:12.351Z,21.40
2018-03-06T03:40:12.288Z,22.20
2018-03-06T03:42:05.119Z,23.30
2018-03-06T03:43:04.986Z,23.50
2018-03-06T03:44:57.924Z,24.20
2018-03-06T03:45:57.781Z,23.50
2018-03-06T03:47:50.592Z,25.10
2018-03-06T03:48:50.480Z,23.90
2018-03-06T03:50:43.814Z,23.50
2018-03-06T03:51:43.232Z,24.80
2018-03-06T03:53:36.121Z,25.40
2018-03-06T03:54:35.981Z,22.80
2018-03-06T03:56:28.828Z,24.50
2018-03-06T03:57:28.733Z,24.30
2018-03-06T03:59:21.508Z,24.80
2018-03-06T04:00:21.378Z,23.90
2018-03-06T04:02:14.327Z,25.00
2018-03-06T04:03:14.226Z,22.70
2018-03-06T04:05:07.096Z,25.50
2018-03-06T04:06:06.988Z,26.10
2018-03-06T04:07:59.830Z,27.30
2018-03-06T04:08:59.722Z,28.00
2018-03-06T04:10:52.597Z,24.70
2018-03-06T04:11:52.470Z,24.90
2018-03-06T04:13:45.323Z,26.00
2018-03-06T04:14:45.232Z,26.50
2018-03-06T04:16:38.092Z,27.40
2018-03-06T04:17:37.973Z,28.40
2018-03-06T04:19:30.842Z,27.80
2018-03-06T04:20:30.728Z,28.30
2018-03-06T04:22:23.606Z,27.10
2018-03-06T04:23:23.464Z,29.30
2018-03-06T04:25:16.323Z,31.70
2018-03-06T04:26:16.223Z,30.70
2018-03-06T04:28:09.090Z,31.40
2018-03-06T04:29:08.969Z,30.60
2018-03-06T04:31:01.845Z,31.70
2018-03-06T04:32:01.866Z,30.10
2018-03-06T04:33:54.714Z,29.70
2018-03-06T04:34:54.575Z,30.00
2018-03-06T04:36:47.454Z,30.40
2018-03-06T04:37:47.323Z,30.20
2018-03-06T04:39:40.235Z,31.40
2018-03-06T04:40:40.067Z,29.10
2018-03-06T04:42:32.958Z,28.70
2018-03-06T04:43:32.829Z,28.70
2018-03-06T04:45:25.727Z,29.30
2018-03-06T04:46:25.567Z,29.50
2018-03-06T04:48:18.445Z,30.30
2018-03-06T04:49:18.331Z,30.40
2018-03-06T04:51:11.183Z,30.00
2018-03-06T04:52:11.132Z,31.20
2018-03-06T04:54:03.948Z,30.90
2018-03-06T04:55:03.831Z,30.20
2018-03-06T04:56:56.679Z,33.40
2018-03-06T04:57:56.585Z,34.40
2018-03-06T04:59:49.469Z,35.50
2018-03-06T05:00:49.322Z,36.10
2018-03-06T05:02:42.192Z,37.30
2018-03-06T05:03:42.071Z,37.50
2018-03-06T05:05:34.937Z,34.50
2018-03-06T05:06:34.820Z,32.60
2018-03-06T05:08:27.676Z,34.00
2018-03-06T05:09:27.571Z,33.90
2018-03-06T05:11:20.441Z,35.80
2018-03-06T05:12:20.326Z,37.60
2018-03-06T05:14:13.181Z,36.30
2018-03-06T05:15:13.069Z,37.20
2018-03-06T05:17:05.939Z,34.60
2018-03-06T05:18:05.815Z,36.30
2018-03-06T05:19:58.671Z,36.00
2018-03-06T05:20:58.569Z,34.70
2018-03-06T05:22:51.431Z,36.30
2018-03-06T05:23:51.319Z,34.70
2018-03-06T05:25:44.211Z,36.50
2018-03-06T05:26:44.073Z,35.60
2018-03-06T05:28:36.932Z,35.30
2018-03-06T05:29:36.817Z,33.40
2018-03-06T05:31:29.720Z,35.50
2018-03-06T05:32:29.570Z,34.50
2018-03-06T05:34:23.490Z,34.40
2018-03-06T05:35:23.355Z,35.10
2018-03-06T05:37:16.211Z,34.80
2018-03-06T05:38:16.095Z,35.90
2018-03-06T05:40:08.940Z,36.60
2018-03-06T05:41:08.857Z,34.90
2018-03-06T05:43:01.830Z,35.60
2018-03-06T05:44:01.700Z,34.30
2018-03-06T05:45:54.558Z,35.30
2018-03-06T05:46:54.438Z,35.40
2018-03-06T05:48:47.308Z,35.00
2018-03-06T05:49:47.188Z,35.40
2018-03-06T05:51:40.049Z,35.60
2018-03-06T05:52:39.936Z,35.70
2018-03-06T05:54:32.817Z,35.70
2018-03-06T05:55:32.689Z,34.60
2018-03-06T05:57:25.540Z,39.60
2018-03-06T05:58:25.439Z,40.50
2018-03-06T06:00:18.302Z,39.90
2018-03-06T06:01:18.182Z,39.80
2018-03-06T06:03:11.151Z,36.80
2018-03-06T06:04:10.930Z,38.00
2018-03-06T06:06:03.798Z,39.30
2018-03-06T06:07:03.683Z,38.90
2018-03-06T06:08:56.541Z,38.90
2018-03-06T06:09:56.438Z,38.30
2018-03-06T06:11:49.321Z,37.70
2018-03-06T06:12:49.183Z,37.60
2018-03-06T06:14:42.048Z,38.00
2018-03-06T06:15:41.931Z,38.10
2018-03-06T06:17:34.798Z,39.00
2018-03-06T06:18:34.684Z,37.70
2018-03-06T06:20:27.544Z,38.50
2018-03-06T06:21:27.444Z,38.90
2018-03-06T06:23:20.308Z,38.50
2018-03-06T06:24:20.186Z,41.20
2018-03-06T06:26:13.047Z,38.90
2018-03-06T06:27:12.930Z,40.60
2018-03-06T06:29:06.320Z,39.10
2018-03-06T06:30:06.193Z,39.60
2018-03-06T06:32:02.020Z,40.60
2018-03-06T06:33:01.922Z,40.60
2018-03-06T06:34:55.313Z,39.10
2018-03-06T06:35:55.172Z,38.20
2018-03-06T06:37:51.016Z,42.70
2018-03-06T06:38:50.895Z,40.80
2018-03-06T06:40:43.764Z,40.20
2018-03-06T06:41:43.643Z,43.30
2018-03-06T06:43:38.150Z,41.60
2018-03-06T06:44:37.933Z,43.00
2018-03-06T06:46:31.293Z,45.30
2018-03-06T06:47:31.195Z,45.80
2018-03-06T06:49:24.082Z,46.30
2018-03-06T06:50:23.956Z,45.70
2018-03-06T06:52:16.803Z,52.10
2018-03-06T06:53:16.703Z,54.50
2018-03-06T06:55:09.566Z,55.70
2018-03-06T06:56:09.467Z,54.00
2018-03-06T06:58:02.293Z,61.90
2018-03-06T06:59:02.186Z,69.10
2018-03-06T07:00:55.058Z,70.70
2018-03-06T07:01:54.951Z,65.50
2018-03-06T07:03:47.797Z,66.20
2018-03-06T07:04:47.687Z,72.10
2018-03-06T07:06:40.558Z,61.90
2018-03-06T07:07:40.436Z,68.60
2018-03-06T07:09:33.294Z,74.90
2018-03-06T07:10:33.192Z,72.50
2018-03-06T07:12:26.056Z,72.80
2018-03-06T07:13:25.943Z,73.30
2018-03-06T07:15:19.310Z,76.80
2018-03-06T07:16:19.198Z,75.70
2018-03-06T07:18:11.968Z,79.50
2018-03-06T07:19:11.861Z,79.60
2018-03-06T07:21:04.725Z,79.70
2018-03-06T07:22:04.595Z,80.90
2018-03-06T07:23:57.463Z,77.30
2018-03-06T07:24:57.344Z,77.70
2018-03-06T07:26:50.217Z,74.20
2018-03-06T07:27:50.090Z,74.70
2018-03-06T07:29:42.995Z,76.00
2018-03-06T07:30:42.837Z,77.30
2018-03-06T07:32:35.728Z,76.60
2018-03-06T07:33:35.591Z,74.30
2018-03-06T07:35:28.475Z,74.70
2018-03-06T07:36:28.347Z,78.50
2018-03-06T07:38:21.198Z,75.90
2018-03-06T07:39:21.108Z,78.00
2018-03-06T07:41:13.961Z,78.20
2018-03-06T07:42:13.862Z,76.10
2018-03-06T07:44:06.708Z,72.50
2018-03-06T07:45:06.593Z,69.80
2018-03-06T07:46:59.452Z,70.70
2018-03-06T07:47:59.407Z,70.90
2018-03-06T07:49:52.208Z,70.50
2018-03-06T07:50:52.086Z,69.40
2018-03-06T07:52:45.046Z,70.50
2018-03-06T07:53:44.843Z,69.30
2018-03-06T07:55:38.207Z,69.20
2018-03-06T07:56:38.115Z,67.90
2018-03-06T07:58:30.979Z,65.40
2018-03-06T07:59:30.848Z,65.90
2018-03-06T08:01:23.710Z,65.80
2018-03-06T08:02:23.618Z,64.60
2018-03-06T08:04:16.489Z,69.90
2018-03-06T08:05:16.360Z,68.20
2018-03-06T08:07:09.320Z,70.90
2018-03-06T08:08:09.208Z,72.20
2018-03-06T08:10:02.065Z,71.20
2018-03-06T08:11:01.963Z,71.00
2018-03-06T08:12:54.832Z,69.80
2018-03-06T08:13:54.713Z,69.20
2018-03-06T08:15:47.570Z,70.50
2018-03-06T08:16:47.448Z,70.50
2018-03-06T08:18:40.302Z,69.40
2018-03-06T08:19:40.212Z,69.40
2018-03-06T08:21:33.122Z,69.70
2018-03-06T08:22:32.959Z,67.90
2018-03-06T08:24:25.815Z,66.60
2018-03-06T08:25:25.710Z,64.10
2018-03-06T08:27:18.588Z,64.90
2018-03-06T08:28:18.454Z,64.10
2018-03-06T08:30:11.303Z,63.60
2018-03-06T08:31:11.199Z,64.50
2018-03-06T08:33:04.060Z,69.70
2018-03-06T08:34:03.953Z,69.30
2018-03-06T08:35:56.835Z,68.80
2018-03-06T08:36:56.781Z,67.40
2018-03-06T08:38:49.577Z,65.50
2018-03-06T08:39:49.474Z,67.60
2018-03-06T08:41:42.343Z,63.90
2018-03-06T08:42:42.207Z,66.50
2018-03-06T08:44:36.114Z,64.10
2018-03-06T08:45:35.971Z,63.10
2018-03-06T08:47:28.853Z,64.10
2018-03-06T08:48:28.729Z,61.90
2018-03-06T08:50:22.078Z,65.50
2018-03-06T08:51:21.471Z,65.30
2018-03-06T08:53:14.328Z,68.00
2018-03-06T08:54:14.243Z,65.60
2018-03-06T08:56:07.099Z,65.70
2018-03-06T08:57:06.977Z,65.10
2018-03-06T08:58:59.832Z,65.20
2018-03-06T08:59:59.732Z,65.20
2018-03-06T09:01:52.584Z,64.20
2018-03-06T09:02:52.474Z,61.70
2018-03-06T09:04:45.849Z,64.00
2018-03-06T09:05:45.750Z,64.70
2018-03-06T09:07:38.584Z,65.70
2018-03-06T09:08:38.485Z,62.90
2018-03-06T09:10:31.345Z,64.20
2018-03-06T09:11:31.229Z,62.70
2018-03-06T09:13:24.082Z,60.60
2018-03-06T09:14:23.986Z,63.00
2018-03-06T09:16:16.864Z,60.60
2018-03-06T09:17:16.736Z,58.60
2018-03-06T09:19:09.587Z,57.40
2018-03-06T09:20:09.483Z,56.50
2018-03-06T09:22:02.363Z,55.60
2018-03-06T09:23:02.229Z,55.80
2018-03-06T09:24:55.627Z,57.40
2018-03-06T09:25:55.495Z,56.40
2018-03-06T09:27:48.403Z,56.70
2018-03-06T09:28:48.243Z,58.90
2018-03-06T09:30:41.127Z,56.10
2018-03-06T09:31:40.991Z,55.90
2018-03-06T09:33:33.868Z,55.20
2018-03-06T09:34:33.753Z,55.60
2018-03-06T09:36:26.604Z,53.60
2018-03-06T09:37:26.502Z,51.30
2018-03-06T09:39:19.365Z,50.90
2018-03-06T09:40:19.251Z,48.00
2018-03-06T09:42:12.089Z,49.60
2018-03-06T09:43:11.989Z,52.30
2018-03-06T09:45:04.867Z,53.40
2018-03-06T09:46:04.753Z,50.90
2018-03-06T09:47:57.598Z,53.40
2018-03-06T09:48:57.486Z,53.30
2018-03-06T09:50:50.391Z,52.20
2018-03-06T09:51:50.250Z,54.00
2018-03-06T09:53:43.085Z,54.30
2018-03-06T09:54:42.993Z,53.50
2018-03-06T09:56:35.850Z,54.00
2018-03-06T09:57:35.753Z,54.40
2018-03-06T09:59:28.594Z,54.10
2018-03-06T10:00:28.488Z,56.30
2018-03-06T10:02:21.369Z,54.40
2018-03-06T10:03:21.237Z,55.80
2018-03-06T10:05:14.093Z,56.40
2018-03-06T10:06:13.998Z,55.30
2018-03-06T10:08:06.880Z,54.50
2018-03-06T10:09:06.742Z,57.80
2018-03-06T10:10:59.592Z,59.10
2018-03-06T10:11:59.497Z,60.00
2018-03-06T10:13:52.347Z,58.40
2018-03-06T10:14:52.233Z,59.90
2018-03-06T10:16:45.090Z,60.50
2018-03-06T10:17:44.993Z,60.00
2018-03-06T10:19:38.376Z,62.80
2018-03-06T10:20:38.245Z,61.80
2018-03-06T10:22:31.139Z,63.00
2018-03-06T10:23:31.012Z,62.00
2018-03-06T10:25:23.859Z,63.90
2018-03-06T10:26:23.749Z,63.50
2018-03-06T10:28:16.608Z,61.50
2018-03-06T10:29:16.506Z,62.40
2018-03-06T10:31:09.389Z,62.50
2018-03-06T10:32:09.263Z,62.20
2018-03-06T10:34:02.137Z,62.70
2018-03-06T10:35:01.999Z,61.50
2018-03-06T10:36:55.376Z,61.70
2018-03-06T10:37:54.772Z,61.30
2018-03-06T10:39:47.602Z,63.00
2018-03-06T10:40:47.503Z,60.50
2018-03-06T10:42:40.379Z,59.70
2018-03-06T10:43:40.249Z,59.20
2018-03-06T10:45:33.100Z,59.00
2018-03-06T10:46:33.002Z,60.10
2018-03-06T10:48:25.865Z,59.90
2018-03-06T10:49:25.749Z,58.40
2018-03-06T10:51:18.594Z,60.20
2018-03-06T10:52:18.513Z,59.90
2018-03-06T10:54:11.358Z,60.60
2018-03-06T10:55:11.258Z,61.90
2018-03-06T10:57:04.095Z,60.90
2018-03-06T10:58:03.992Z,59.80
2018-03-06T10:59:56.859Z,60.00
2018-03-06T11:00:56.746Z,59.00
2018-03-06T11:02:49.600Z,61.50
2018-03-06T11:03:49.505Z,59.70
2018-03-06T11:05:42.456Z,59.50
2018-03-06T11:06:42.361Z,59.20
2018-03-06T11:08:35.184Z,57.70
2018-03-06T11:09:35.087Z,58.20
2018-03-06T11:11:28.066Z,58.20
2018-03-06T11:12:28.018Z,57.90
2018-03-06T11:14:20.818Z,57.80
2018-03-06T11:15:20.694Z,58.50
2018-03-06T11:17:13.570Z,55.30
2018-03-06T11:18:13.449Z,57.20
2018-03-06T11:20:06.303Z,57.90
2018-03-06T11:21:06.194Z,57.60
2018-03-06T11:22:59.589Z,56.90
2018-03-06T11:23:59.456Z,56.90
2018-03-06T11:25:52.320Z,56.00
2018-03-06T11:26:52.204Z,57.80
2018-03-06T11:28:45.088Z,58.00
2018-03-06T11:29:44.974Z,56.60
2018-03-06T11:31:37.814Z,56.70
2018-03-06T11:32:37.705Z,57.20
2018-03-06T11:34:30.588Z,56.30
2018-03-06T11:35:30.452Z,57.00
2018-03-06T11:37:23.324Z,56.70
2018-03-06T11:38:23.201Z,55.00
2018-03-06T11:40:16.073Z,56.10
2018-03-06T11:41:15.952Z,56.40
2018-03-06T11:43:08.811Z,56.70
2018-03-06T11:44:08.705Z,56.80
2018-03-06T11:46:01.738Z,57.50
2018-03-06T11:47:01.458Z,56.00
2018-03-06T11:48:54.350Z,58.10
2018-03-06T11:49:54.207Z,57.20
2018-03-06T11:51:47.172Z,57.70
2018-03-06T11:52:47.019Z,58.90
2018-03-06T11:54:39.799Z,56.50
2018-03-06T11:55:39.698Z,56.70
2018-03-06T11:57:32.563Z,58.30
2018-03-06T11:58:32.452Z,56.50
2018-03-06T12:00:25.298Z,54.90
2018-03-06T12:01:25.201Z,57.00
2018-03-06T12:03:19.616Z,55.70
2018-03-06T12:04:19.514Z,55.50
2018-03-06T12:06:12.332Z,57.30
2018-03-06T12:07:12.281Z,57.80
2018-03-06T12:09:05.108Z,56.30
2018-03-06T12:10:05.005Z,56.60
2018-03-06T12:11:57.854Z,56.70
2018-03-06T12:12:57.741Z,57.00
2018-03-06T12:14:50.616Z,56.80
2018-03-06T12:15:50.500Z,56.00
2018-03-06T12:17:43.378Z,58.80
2018-03-06T12:18:43.250Z,59.70
2018-03-06T12:20:36.110Z,57.40
2018-03-06T12:21:35.983Z,58.50
2018-03-06T12:23:29.361Z,56.50
2018-03-06T12:24:29.253Z,56.00
2018-03-06T12:26:22.105Z,56.50
2018-03-06T12:27:22.038Z,56.20
2018-03-06T12:29:14.839Z,57.70
2018-03-06T12:30:14.799Z,57.90
2018-03-06T12:32:08.631Z,60.90
2018-03-06T12:33:08.548Z,60.70
2018-03-06T12:35:01.930Z,61.50
2018-03-06T12:36:01.785Z,61.60
2018-03-06T12:37:54.768Z,61.40
2018-03-06T12:38:54.531Z,63.40
2018-03-06T12:40:47.389Z,61.30
2018-03-06T12:41:47.280Z,60.40
2018-03-06T12:43:40.175Z,60.50
2018-03-06T12:44:40.030Z,61.00
2018-03-06T12:46:32.878Z,60.80
2018-03-06T12:47:32.775Z,61.30
2018-03-06T12:49:25.650Z,60.50
2018-03-06T12:50:25.526Z,61.70
2018-03-06T12:52:18.396Z,61.70
2018-03-06T12:53:18.278Z,61.60
2018-03-06T12:55:11.427Z,62.90
2018-03-06T12:56:11.035Z,59.70
2018-03-06T12:58:03.892Z,61.60
2018-03-06T12:59:03.777Z,63.80
2018-03-06T13:00:57.154Z,63.50
2018-03-06T13:01:57.045Z,63.50
2018-03-06T13:03:49.888Z,61.90
2018-03-06T13:04:49.788Z,64.00
2018-03-06T13:06:42.665Z,62.50
2018-03-06T13:07:42.540Z,63.10
2018-03-06T13:09:35.390Z,63.00
2018-03-06T13:10:35.285Z,64.00
2018-03-06T13:12:28.214Z,62.90
2018-03-06T13:13:28.041Z,65.40
2018-03-06T13:15:21.012Z,66.10
2018-03-06T13:16:20.890Z,63.70
2018-03-06T13:18:13.752Z,64.20
2018-03-06T13:19:13.639Z,65.10
2018-03-06T13:21:06.496Z,68.90
2018-03-06T13:22:06.405Z,68.00
2018-03-06T13:23:59.251Z,65.20
2018-03-06T13:24:59.153Z,65.30
2018-03-06T13:26:51.981Z,65.10
2018-03-06T13:27:51.896Z,64.20
2018-03-06T13:29:44.750Z,65.90
2018-03-06T13:30:44.653Z,65.40
2018-03-06T13:32:37.516Z,64.80
2018-03-06T13:33:37.391Z,64.90
2018-03-06T13:35:30.274Z,64.50
2018-03-06T13:36:30.145Z,64.30
2018-03-06T13:38:22.996Z,65.30
2018-03-06T13:39:22.894Z,64.30
2018-03-06T13:41:15.747Z,64.40
2018-03-06T13:42:15.631Z,63.40
2018-03-06T13:44:08.632Z,63.50
2018-03-06T13:45:08.389Z,63.30
2018-03-06T13:47:02.285Z,63.90
2018-03-06T13:48:02.163Z,64.20
2018-03-06T13:49:55.017Z,63.60
2018-03-06T13:50:54.962Z,62.80
2018-03-06T13:52:47.782Z,64.60
2018-03-06T13:53:47.661Z,63.80
2018-03-06T13:55:40.519Z,63.10
2018-03-06T13:56:40.410Z,63.70
2018-03-06T13:58:33.180Z,64.30
2018-03-06T13:59:33.054Z,64.00
2018-03-06T14:01:25.907Z,64.70
2018-03-06T14:02:25.797Z,63.20
2018-03-06T14:04:18.665Z,63.40
2018-03-06T14:05:18.547Z,65.30
2018-03-06T14:07:11.400Z,64.30
2018-03-06T14:08:11.304Z,62.60
2018-03-06T14:10:04.181Z,62.60
2018-03-06T14:11:04.054Z,65.60
2018-03-06T14:12:57.205Z,63.50
2018-03-06T14:13:57.116Z,63.10
2018-03-06T14:15:49.968Z,64.70
2018-03-06T14:16:49.859Z,64.00
2018-03-06T14:18:42.733Z,64.00
2018-03-06T14:19:42.617Z,63.90
2018-03-06T14:21:35.478Z,63.40
2018-03-06T14:22:35.356Z,63.00
2018-03-06T14:24:28.221Z,63.40
2018-03-06T14:25:28.102Z,63.10
2018-03-06T14:27:20.975Z,61.90
2018-03-06T14:28:20.864Z,61.10
2018-03-06T14:30:13.699Z,60.70
2018-03-06T14:31:13.647Z,61.40
2018-03-06T14:33:06.477Z,62.40
2018-03-06T14:34:06.360Z,63.20
2018-03-06T14:35:59.345Z,62.20
2018-03-06T14:36:59.212Z,63.70
2018-03-06T14:38:52.180Z,62.30
2018-03-06T14:39:52.062Z,62.90
2018-03-06T14:41:45.009Z,61.70
2018-03-06T14:42:44.920Z,63.90
2018-03-06T14:44:37.890Z,61.20
2018-03-06T14:45:37.771Z,62.10
2018-03-06T14:47:30.622Z,61.30
2018-03-06T14:48:30.534Z,61.40
2018-03-06T14:50:23.377Z,61.50
2018-03-06T14:51:23.268Z,60.20
2018-03-06T14:53:17.138Z,60.60
2018-03-06T14:54:17.113Z,61.20
2018-03-06T14:56:09.894Z,61.40
2018-03-06T14:57:09.791Z,60.70
2018-03-06T14:59:02.634Z,61.40
2018-03-06T15:00:02.536Z,61.30
2018-03-06T15:01:55.389Z,63.40
2018-03-06T15:02:55.288Z,61.10
2018-03-06T15:04:48.133Z,61.30
2018-03-06T15:05:48.037Z,61.90
2018-03-06T15:07:40.893Z,59.70
2018-03-06T15:08:40.781Z,59.60
2018-03-06T15:10:33.652Z,59.40
2018-03-06T15:11:33.544Z,58.60
2018-03-06T15:13:26.400Z,59.20
2018-03-06T15:14:26.286Z,60.90
2018-03-06T15:16:19.229Z,59.30
2018-03-06T15:17:19.135Z,60.20
2018-03-06T15:19:11.914Z,58.90
2018-03-06T15:20:11.789Z,58.60
2018-03-06T15:22:04.536Z,59.00
2018-03-06T15:23:04.431Z,61.20
2018-03-06T15:24:57.233Z,67.30
2018-03-06T15:25:57.080Z,66.80
2018-03-06T15:27:49.847Z,61.10
2018-03-06T15:28:49.730Z,59.60
2018-03-06T15:30:42.507Z,61.80
2018-03-06T15:31:42.370Z,60.50
2018-03-06T15:33:35.121Z,60.10
2018-03-06T15:34:35.037Z,58.60
2018-03-06T15:36:27.801Z,60.90
2018-03-06T15:37:27.680Z,60.80
2018-03-06T15:39:20.417Z,60.50
2018-03-06T15:40:20.315Z,60.00
2018-03-06T15:42:13.076Z,60.90
2018-03-06T15:43:12.984Z,61.40
2018-03-06T15:45:05.731Z,60.10
2018-03-06T15:46:05.631Z,63.30
2018-03-06T15:47:58.399Z,62.70
2018-03-06T15:48:58.467Z,62.70
2018-03-06T15:50:51.128Z,62.10
2018-03-06T15:51:51.006Z,63.00
2018-03-06T15:53:43.890Z,61.70
2018-03-06T15:54:43.798Z,63.10
2018-03-06T15:56:36.946Z,62.30
2018-03-06T15:57:36.402Z,62.50
2018-03-06T15:59:29.266Z,63.20
2018-03-06T16:00:29.154Z,64.80
2018-03-06T16:02:22.463Z,63.30
2018-03-06T16:03:22.343Z,64.20
2018-03-06T16:05:15.180Z,62.90
2018-03-06T16:06:15.066Z,63.40
2018-03-06T16:08:07.812Z,63.90
2018-03-06T16:09:07.729Z,65.00
2018-03-06T16:11:00.511Z,65.20
2018-03-06T16:12:00.361Z,65.50
2018-03-06T16:13:53.115Z,65.80
2018-03-06T16:14:53.003Z,65.80
2018-03-06T16:16:45.803Z,63.30
2018-03-06T16:17:45.628Z,62.30
2018-03-06T16:19:38.488Z,65.20
2018-03-06T16:20:38.384Z,66.00
2018-03-06T16:22:31.155Z,63.80
2018-03-06T16:23:31.054Z,67.80
2018-03-06T16:25:23.802Z,67.30
2018-03-06T16:26:23.724Z,66.70
2018-03-06T16:28:21.574Z,64.60
2018-03-06T16:29:21.478Z,66.10
2018-03-06T16:31:14.309Z,64.70
2018-03-06T16:32:14.184Z,63.70
2018-03-06T16:34:12.094Z,62.60
2018-03-06T16:35:11.992Z,64.00
2018-03-06T16:37:05.276Z,63.40
2018-03-06T16:38:05.158Z,68.30
2018-03-06T16:39:58.440Z,67.80
2018-03-06T16:40:58.314Z,63.40
2018-03-06T16:42:54.118Z,63.60
2018-03-06T16:43:54.021Z,61.60
2018-03-06T16:45:48.318Z,61.30
2018-03-06T16:46:48.205Z,61.80
2018-03-06T16:48:40.965Z,61.60
2018-03-06T16:49:40.848Z,62.60
2018-03-06T16:51:33.613Z,62.30
2018-03-06T16:52:33.510Z,61.00
2018-03-06T16:54:26.330Z,61.90
2018-03-06T16:55:26.242Z,62.40
2018-03-06T16:57:18.998Z,62.40
2018-03-06T16:58:18.886Z,61.30
2018-03-06T17:00:11.765Z,61.50
2018-03-06T17:01:11.669Z,63.40
2018-03-06T17:03:04.481Z,62.50
2018-03-06T17:04:04.502Z,61.60
2018-03-06T17:05:57.227Z,62.40
2018-03-06T17:06:57.160Z,62.50
2018-03-06T17:08:49.995Z,64.20
2018-03-06T17:09:49.888Z,63.50
2018-03-06T17:11:42.613Z,63.70
2018-03-06T17:12:42.502Z,63.80
2018-03-06T17:14:35.288Z,62.70
2018-03-06T17:15:35.156Z,63.40
2018-03-06T17:17:28.029Z,62.00
2018-03-06T17:18:27.923Z,62.40
2018-03-06T17:20:20.685Z,62.50
2018-03-06T17:21:20.572Z,62.90
2018-03-06T17:23:13.365Z,62.80
2018-03-06T17:24:13.233Z,62.60
2018-03-06T17:26:05.991Z,63.80
2018-03-06T17:27:05.869Z,61.90
2018-03-06T17:28:58.721Z,61.00
2018-03-06T17:29:58.615Z,62.10
2018-03-06T17:31:51.374Z,60.40
2018-03-06T17:32:51.240Z,60.10
2018-03-06T17:34:44.007Z,60.20
2018-03-06T17:35:43.911Z,58.80
2018-03-06T17:37:36.786Z,59.20
2018-03-06T17:38:36.655Z,58.90
2018-03-06T17:40:29.506Z,60.20
2018-03-06T17:41:29.425Z,59.20
2018-03-06T17:43:22.300Z,66.50
2018-03-06T17:44:22.153Z,69.10
2018-03-06T17:46:15.014Z,62.30
2018-03-06T17:47:14.886Z,61.10
2018-03-06T17:49:07.751Z,113.40
2018-03-06T17:50:07.641Z,95.50
2018-03-06T17:52:00.430Z,71.80
2018-03-06T17:53:00.350Z,72.30
2018-03-06T17:54:53.689Z,68.10
2018-03-06T17:55:53.567Z,66.90
2018-03-06T17:57:46.315Z,61.80
2018-03-06T17:58:46.253Z,61.80
2018-03-06T18:00:39.072Z,58.00
2018-03-06T18:01:38.958Z,58.10
2018-03-06T18:03:31.819Z,56.90
2018-03-06T18:04:31.739Z,57.10
2018-03-06T18:06:24.587Z,56.60
2018-03-06T18:07:24.458Z,55.40
2018-03-06T18:09:17.315Z,57.20
2018-03-06T18:10:17.271Z,55.40
2018-03-06T18:12:11.084Z,55.80
2018-03-06T18:13:09.961Z,56.50
2018-03-06T18:15:02.851Z,57.20
2018-03-06T18:16:02.733Z,57.80
2018-03-06T18:17:55.583Z,56.60
2018-03-06T18:18:55.458Z,57.40
2018-03-06T18:20:48.311Z,57.40
2018-03-06T18:21:48.224Z,58.00
2018-03-06T18:23:41.089Z,57.50
2018-03-06T18:24:40.963Z,58.30
2018-03-06T18:26:33.823Z,58.50
2018-03-06T18:27:33.768Z,61.10
2018-03-06T18:29:26.592Z,61.00
2018-03-06T18:30:26.485Z,61.10
2018-03-06T18:32:19.722Z,58.30